Flight Track Log - Related Links

Times and Time Zones

All times are in EDT time to prevent confusion due to time zone crossing. See the SWA315 flight status page for this flight to view local times or setup timezone preferences in your user account.

Time Position Orientation Groundspeed Altitude Reporting Facility
EDT Latitude Longitude Course Direction KTS MPH feet Rate Location/Type
Tue 09:34:37 AM 37.7333 -122.3000 310° West 199 229 1,700  Level Northern Cal TRACON
Tue 09:35:37 AM 37.7667 -122.3500 310° West 241 277 3,900 2,090 Climbing Northern Cal TRACON
Tue 09:36:06 AM 37.7914 -122.3589 344° North 234 269 4,800 2,200 Climbing Oakland Center
Tue 09:37:07 AM 37.8597 -122.3628 357° North 245 282 7,200 2,164 Climbing Oakland Center
Tue 09:38:08 AM 37.8703 -122.2739 81° East 301 346 9,200 2,361 Climbing Oakland Center
Tue 09:39:09 AM 37.8406 -122.1778 111° Southeast 295 339 12,000 2,803 Climbing Oakland Center
Tue 09:40:10 AM 37.8489 -122.0658 85° East 325 374 14,900 2,331 Climbing Oakland Center
Tue 09:41:10 AM 37.8736 -121.9514 75° East 336 387 16,700 1,884 Climbing Oakland Center
Tue 09:42:11 AM 37.9006 -121.8272 75° East 362 417 18,700 1,869 Climbing Oakland Center
Tue 09:43:12 AM 37.9292 -121.6936 75° East 388 447 20,500 1,869 Climbing Oakland Center
Tue 09:44:13 AM 37.9589 -121.5542 75° East 409 471 22,500 1,967 Climbing Oakland Center
Tue 09:45:14 AM 37.9953 -121.3856 75° East 426 490 24,500 1,770 Climbing Oakland Center
Tue 09:46:15 AM 38.0258 -121.2350 76° East 441 507 26,100 1,475 Climbing Oakland Center
Tue 09:47:16 AM 38.0586 -121.0828 75° East 450 518 27,500 1,289 Climbing Oakland Center
Tue 09:48:16 AM 38.0878 -120.9253 77° East 459 528 28,700 1,190 Climbing Oakland Center
Tue 09:49:17 AM 38.1169 -120.7611 77° East 477 549 29,900 1,475 Climbing Oakland Center
Tue 09:50:18 AM 38.1475 -120.5975 77° East 478 550 31,700 1,230 Climbing Oakland Center
Tue 09:51:19 AM 38.1761 -120.4356 77° East 474 545 32,400 836 Climbing Oakland Center
Tue 09:52:20 AM 38.2064 -120.2667 77° East 488 562 33,400 1,279 Climbing Oakland Center
Tue 09:53:21 AM 38.2367 -120.0997 77° East 488 562 35,000 1,131 Climbing Oakland Center
Tue 09:54:22 AM 38.2675 -119.9339 77° East 483 556 35,700 836 Climbing Oakland Center
Tue 09:55:23 AM 38.3014 -119.7314 78° East 488 562 36,700 639 Climbing Oakland Center
Tue 09:56:24 AM 38.3317 -119.5614 77° East 492 566 37,000 148 Climbing Oakland Center
Tue 09:57:25 AM 38.3569 -119.3856 80° East 504 580 37,000  Level Oakland Center
Tue 09:58:25 AM 38.3869 -119.2106 78° East 507 583 37,000  Level Oakland Center
Tue 09:59:26 AM 38.4156 -119.0394 78° East 499 574 37,000  Level Oakland Center
Tue 10:00:27 AM 38.4442 -118.8706 78° East 492 566 37,000  Level Oakland Center
Tue 10:01:28 AM 38.4708 -118.7033 78° East 486 559 37,000  Level Oakland Center
Tue 10:02:29 AM 38.4986 -118.5367 78° East 484 557 37,000  Level Oakland Center
Tue 10:03:30 AM 38.5250 -118.3708 78° East 480 552 37,000  Level Oakland Center
Tue 10:04:31 AM 38.5508 -118.2053 79° East 479 551 37,000  Level Oakland Center
Tue 10:05:32 AM 38.5808 -118.0222 78° East 476 548 37,000  Level Oakland Center
Tue 10:06:33 AM 38.6061 -117.8544 79° East 478 550 37,000  Level Oakland Center
Tue 10:07:34 AM 38.6319 -117.6872 79° East 478 550 37,000  Level Oakland Center
Tue 10:08:35 AM 38.6567 -117.5189 79° East 478 550 37,000  Level Oakland Center
Tue 10:09:39 AM 38.6806 -117.3494 80° East 480 552 37,000  Level Salt Lake Center
Tue 10:10:40 AM 38.7067 -117.1803 79° East 481 554 37,000  Level Salt Lake Center
Tue 10:11:38 AM 38.7331 -117.0094 79° East 484 557 37,000  Level Oakland Center
Tue 10:12:38 AM 38.7581 -116.8350 80° East 491 565 37,000  Level Oakland Center
Tue 10:13:40 AM 38.7839 -116.6625 79° East 491 565 37,000  Level Oakland Center
Tue 10:14:41 AM 38.8075 -116.4872 80° East 495 570 37,000  Level Oakland Center
Tue 10:15:42 AM 38.8328 -116.3122 79° East 497 572 37,000  Level Oakland Center
Tue 10:16:43 AM 38.8569 -116.1317 80° East 497 572 37,000  Level Oakland Center
Tue 10:17:49 AM 38.8853 -115.9267 80° East 499 574 37,000  Level Salt Lake Center
Tue 10:18:51 AM 38.9086 -115.7492 80° East 503 579 37,000  Level Salt Lake Center
Tue 10:19:52 AM 38.9328 -115.5719 80° East 504 580 37,000  Level Salt Lake Center
Tue 10:20:54 AM 38.9603 -115.3739 80° East 507 583 37,000  Level Salt Lake Center
Tue 10:21:55 AM 38.9814 -115.2097 81° East 510 587 37,000  Level Salt Lake Center
Tue 10:22:56 AM 39.0047 -115.0306 80° East 510 587 37,000  Level Salt Lake Center
Tue 10:23:58 AM 39.0289 -114.8492 80° East 514 592 37,000  Level Salt Lake Center
Tue 10:24:59 AM 39.0603 -114.6694 77° East 515 593 37,000  Level Salt Lake Center
Tue 10:26:01 AM 39.0989 -114.4547 77° East 514 592 37,000  Level Salt Lake Center
Tue 10:27:02 AM 39.1319 -114.2725 77° East 519 597 37,000  Level Salt Lake Center
Tue 10:28:03 AM 39.1647 -114.0883 77° East 526 605 37,000  Level Salt Lake Center
Tue 10:29:05 AM 39.1961 -113.9069 77° East 522 601 37,000  Level Salt Lake Center
Tue 10:30:06 AM 39.2275 -113.7236 77° East 523 602 37,000  Level Salt Lake Center
Tue 10:31:08 AM 39.2586 -113.5414 78° East 522 601 37,000  Level Salt Lake Center
Tue 10:32:09 AM 39.2894 -113.3572 78° East 525 604 37,000  Level Salt Lake Center
Tue 10:33:11 AM 39.3203 -113.1742 78° East 522 601 37,000  Level Salt Lake Center
Tue 10:34:12 AM 39.3514 -112.9911 78° East 522 601 37,000  Level Salt Lake Center
Tue 10:35:14 AM 39.3867 -112.7706 78° East 523 602 37,000  Level Salt Lake Center
Tue 10:36:15 AM 39.4136 -112.6108 78° East 525 604 37,000  Level Salt Lake Center
Tue 10:37:17 AM 39.4483 -112.3931 78° East 520 598 37,000  Level Salt Lake Center
Tue 10:38:18 AM 39.4783 -112.2117 78° East 519 597 37,000  Level Salt Lake Center
Tue 10:39:20 AM 39.5056 -112.0264 79° East 524 603 37,000  Level Salt Lake Center
Tue 10:40:21 AM 39.5347 -111.8442 78° East 521 600 37,000  Level Salt Lake Center
Tue 10:41:52 AM 39.5783 -111.5550 79° East 523 602 37,000  Level Denver Center
Tue 10:42:24 AM 39.5906 -111.4753 79° East 522 601 37,000  Level Salt Lake Center
Tue 10:43:26 AM 39.6228 -111.2614 79° East 521 600 37,000  Level Salt Lake Center
Tue 10:44:28 AM 39.6481 -111.0883 79° East 515 593 37,000  Level Salt Lake Center
Tue 10:45:29 AM 39.6742 -110.9158 79° East 511 588 37,000  Level Salt Lake Center
Tue 10:46:31 AM 39.7033 -110.7158 79° East 505 581 37,000  Level Salt Lake Center
Tue 10:47:32 AM 39.7269 -110.5439 80° East 504 580 37,000  Level Salt Lake Center
Tue 10:48:34 AM 39.7550 -110.3450 80° East 503 579 37,000  Level Salt Lake Center
Tue 10:49:36 AM 39.7794 -110.1731 79° East 505 581 37,000  Level Salt Lake Center
Tue 10:50:37 AM 39.8022 -110.0000 80° East 507 583 37,000  Level Salt Lake Center
Tue 10:51:39 AM 39.8306 -109.7942 80° East 516 594 37,000  Level Salt Lake Center
Tue 10:52:40 AM 39.8542 -109.6186 80° East 515 593 37,000  Level Salt Lake Center
Tue 10:53:10 AM 39.8653 -109.5272 81° East 520 598 37,000  Level Denver Center
Tue 10:54:12 AM 39.8931 -109.3200 80° East 520 598 37,000  Level Denver Center
Tue 10:55:14 AM 39.9158 -109.1422 80° East 517 595 37,000  Level Denver Center
Tue 10:55:45 AM 39.9278 -109.0528 80° East 522 601 37,000  Level Salt Lake Center
Tue 10:56:47 AM 39.9553 -108.8422 80° East 522 601 37,000  Level Salt Lake Center
Tue 10:57:18 AM 39.9669 -108.7508 81° East 521 600 37,000  Level Denver Center
Tue 10:58:19 AM 39.9897 -108.5700 81° East 524 603 37,000  Level Denver Center
Tue 10:59:21 AM 40.0156 -108.3578 81° East 526 605 37,000  Level Denver Center
Tue 11:00:24 AM 40.0372 -108.1758 81° East 528 608 37,000  Level Denver Center
Tue 11:01:26 AM 40.0625 -107.9628 81° East 532 612 37,000  Level Denver Center
Tue 11:02:28 AM 40.1003 -107.7858 74° East 530 610 37,000  Level Denver Center
Tue 11:03:30 AM 40.1931 -107.6036 56° Northeast 538 619 37,000  Level Denver Center
Tue 11:04:31 AM 40.3022 -107.4878 39° Northeast 527 606 37,000  Level Denver Center
Tue 11:05:33 AM 40.4347 -107.3611 36° Northeast 528 608 37,000  Level Denver Center
Tue 11:06:35 AM 40.5475 -107.2542 36° Northeast 524 603 37,000  Level Denver Center
Tue 11:07:37 AM 40.6578 -107.1489 36° Northeast 525 604 37,000  Level Denver Center
Tue 11:08:39 AM 40.7967 -107.0169 36° Northeast 523 602 37,000 -629 Level Denver Center
Tue 11:09:41 AM 40.9028 -106.9008 40° Northeast 528 608 35,700 -1,824 Descending Denver Center
Tue 11:10:44 AM 40.9894 -106.7050 60° Northeast 552 635 33,200 -1,728 Descending Denver Center
Tue 11:11:46 AM 41.0533 -106.5417 63° Northeast 531 611 32,100 -581 Descending Denver Center
Tue 11:12:48 AM 41.0050 -106.3769 111° Southeast 436 502 32,000 -242 Descending Denver Center
Tue 11:13:50 AM 40.9203 -106.3081 148° Southeast 380 437 31,600 -774 Descending Denver Center
Tue 11:14:52 AM 40.8178 -106.2383 153° Southeast 370 426 30,400 -1,016 Descending Denver Center
Tue 11:15:54 AM 40.7317 -106.2000 161° South 351 404 29,500 -968 Descending Denver Center
Tue 11:16:56 AM 40.6325 -106.1672 166° South 332 382 28,400 -1,065 Descending Denver Center
Tue 11:17:58 AM 40.5411 -106.1286 162° South 332 382 27,300 -1,016 Descending Denver Center
Tue 11:19:00 AM 40.4642 -106.0372 138° Southeast 371 427 26,300 -1,161 Descending Denver Center
Tue 11:20:02 AM 40.4161 -105.8986 114° Southeast 416 479 24,900 -1,403 Descending Denver Center
Tue 11:21:04 AM 40.4128 -105.7339 91° East 452 520 23,400 -1,306 Descending Denver Center
Tue 11:22:06 AM 40.4783 -105.6006 57° Northeast 426 490 22,200 -1,113 Descending Denver Center
Tue 11:23:08 AM 40.5767 -105.5506 21° North 378 435 21,100 -1,065 Descending Denver Center
Tue 11:24:10 AM 40.6547 -105.4475 45° Northeast 404 465 20,000 -528 Descending Denver Center
Tue 11:25:13 AM 40.6469 -105.2942 94° East 358 412 20,000 -576 Level Denver Center
Tue 11:26:15 AM 40.5778 -105.2364 148° Southeast 288 331 18,800 -1,016 Descending Denver Center
Tue 11:27:17 AM 40.5042 -105.2114 166° South 271 312 17,900 -1,016 Descending Denver Center
Tue 11:28:19 AM 40.4214 -105.1864 167° South 287 330 16,700 -1,548 Descending Denver Center
Tue 11:29:21 AM 40.3461 -105.1550 162° South 290 334 14,700 -1,790 Descending Denver Center
Tue 11:30:23 AM 40.2772 -105.0931 146° Southeast 299 344 13,000 -1,161 Descending Denver Center
Tue 11:31:25 AM 40.2047 -105.0344 148° Southeast 283 326 12,300 -484 Descending Denver Center
Tue 11:32:27 AM 40.1375 -104.9792 148° Southeast 282 325 12,000 -290 Descending Denver Center
Tue 11:33:29 AM 40.0656 -104.9483 162° South 254 292 11,700 -484 Descending Denver Center
Tue 11:34:31 AM 39.9931 -104.9286 168° South 277 319 11,000 -339 Descending Denver Center
Tue 11:35:33 AM 39.9961 -104.8433 87° East 254 292 11,000 -484 Level Denver Center
Tue 11:36:35 AM 40.0553 -104.8389 North 215 247 10,000 -774 Descending Denver Center
Tue 11:37:37 AM 40.1147 -104.8444 356° North 212 244 9,400 -968 Descending Denver Center
Tue 11:38:39 AM 40.1808 -104.8517 355° North 220 253 8,000 -677 Descending Denver Center
Tue 11:39:41 AM 40.2342 -104.8386 11° North 210 242 8,000  Level Denver Center
Tue 11:40:43 AM 40.2331 -104.7681 91° East 181 208 8,000  Level Denver Center
Tue 11:41:45 AM 40.2175 -104.7125 110° East 178 205 8,000  Level Denver Center
Tue 11:42:47 AM 40.1758 -104.6856 154° Southeast 168 193 8,000  Level Denver Center
Tue 11:43:49 AM 40.1281 -104.6839 178° South 160 184 8,000  Level Denver Center
Tue 11:44:52 AM 40.0814 -104.6850 181° South 167 192 8,000  Level Denver Center
Tue 11:45:54 AM 40.0331 -104.6856 181° South 162 186 8,000 -387 Level Denver Center
Tue 11:46:56 AM 39.9900 -104.6858 180° South 156 180 7,200 -726 Descending Denver Center
Tue 11:47:58 AM 39.9494 -104.6864 181° South 146 168 6,500 -726 Descending Denver Center
Tue 11:49:00 AM 39.9122 -104.6867 180° South 127 146 5,700 -532 Descending Denver Center
Tue 11:50:02 AM 39.8808 -104.6875 181° South 111 128 5,400 -290 Descending Denver Center

Login

Don't have an account? Register now (free) for customized features, flight alerts, and more!